Time;durP1;ratioP1;P1;durP2;ratioP2;P2;SDS_P1;SDS_P2;PMS_P1;PMS_P2;Temp;Humidity;BMP_temperature;BMP_pressure;BME280_temperature;BME280_humidity;BME280_pressure;Samples;Min_cycle;Max_cycle;Signal;HPM_P1;HPM_P2
2023/10/17 00:01:33;;;;;;;6.25;3.97;;;;;;;;;;5027013;28;20049;-86
2023/10/17 00:04:20;;;;;;;6.07;3.78;;;;;;;;;;5023579;28;20053;-83
2023/10/17 00:06:51;;;;;;;5.03;3.38;;;;;;;;;;5007186;28;20073;-86
2023/10/17 00:09:22;;;;;;;6.47;3.97;;;;;;;;;;5028849;28;20100;-84
2023/10/17 00:14:23;;;;;;;5.45;3.80;;;;;;;;;;5040485;28;20057;-83
2023/10/17 00:16:54;;;;;;;9.23;3.75;;;;;;;;;;5023287;28;20467;-83
2023/10/17 00:19:31;;;;;;;6.80;3.55;;;;;;;;;;5023395;28;20045;-83
2023/10/17 00:22:04;;;;;;;4.18;3.60;;;;;;;;;;5034327;28;20136;-84
2023/10/17 00:24:31;;;;;;;9.32;4.50;;;;;;;;;;5033346;28;20052;-84
2023/10/17 00:27:03;;;;;;;6.05;4.20;;;;;;;;;;5033968;28;20056;-84
2023/10/17 00:29:31;;;;;;;7.18;3.88;;;;;;;;;;5023994;28;20535;-84
2023/10/17 00:31:58;;;;;;;8.45;3.83;;;;;;;;;;5030668;28;20049;-83
2023/10/17 00:34:25;;;;;;;5.57;3.53;;;;;;;;;;5031432;28;20075;-83
2023/10/17 00:37:06;;;;;;;6.57;3.90;;;;;;;;;;5038293;28;20487;-85
2023/10/17 00:39:33;;;;;;;5.90;3.45;;;;;;;;;;5022971;28;20049;-84
2023/10/17 00:44:36;;;;;;;5.15;3.63;;;;;;;;;;5047813;28;20182;-87
2023/10/17 00:47:08;;;;;;;8.40;4.03;;;;;;;;;;5025606;28;20087;-84
2023/10/17 00:52:32;;;;;;;8.32;3.90;;;;;;;;;;5044149;28;20053;-84
2023/10/17 00:54:59;;;;;;;3.63;3.22;;;;;;;;;;5034852;28;20481;-85
2023/10/17 00:57:27;;;;;;;5.72;3.38;;;;;;;;;;5032085;28;20056;-84
2023/10/17 00:59:55;;;;;;;6.38;3.70;;;;;;;;;;5023145;28;20083;-87
2023/10/17 01:02:24;;;;;;;6.22;3.80;;;;;;;;;;5035313;28;20549;-87
2023/10/17 01:04:52;;;;;;;7.20;3.80;;;;;;;;;;5033267;28;20046;-86
2023/10/17 01:07:29;;;;;;;3.55;3.05;;;;;;;;;;5036940;28;20045;-84
2023/10/17 01:10:16;;;;;;;5.93;3.92;;;;;;;;;;5034460;28;20522;-87
2023/10/17 01:12:54;;;;;;;5.47;3.08;;;;;;;;;;5027309;28;20175;-86
2023/10/17 01:15:22;;;;;;;3.45;3.15;;;;;;;;;;5056614;28;20057;-84
2023/10/17 01:17:54;;;;;;;5.20;3.25;;;;;;;;;;5042020;28;20422;-87
2023/10/17 01:20:22;;;;;;;5.20;2.95;;;;;;;;;;5041994;28;20087;-86
2023/10/17 01:22:55;;;;;;;3.60;3.25;;;;;;;;;;5032349;28;20045;-85
2023/10/17 01:25:26;;;;;;;4.45;3.40;;;;;;;;;;5045572;28;20514;-84
2023/10/17 01:27:54;;;;;;;6.60;3.83;;;;;;;;;;5039686;28;20504;-83
2023/10/17 01:30:22;;;;;;;6.93;4.03;;;;;;;;;;5032188;28;20063;-83
2023/10/17 01:32:51;;;;;;;6.40;3.70;;;;;;;;;;5036732;28;20053;-83
2023/10/17 01:35:21;;;;;;;5.95;3.67;;;;;;;;;;5044138;28;20044;-83
2023/10/17 01:37:49;;;;;;;5.68;3.72;;;;;;;;;;5056935;28;20053;-86
2023/10/17 01:40:22;;;;;;;7.72;3.75;;;;;;;;;;5029260;28;20048;-86
2023/10/17 01:42:54;;;;;;;6.13;3.47;;;;;;;;;;5041270;28;20053;-87
2023/10/17 01:45:23;;;;;;;4.47;3.70;;;;;;;;;;5019294;28;20049;-87
2023/10/17 01:47:51;;;;;;;5.97;3.78;;;;;;;;;;5018513;28;20049;-87
2023/10/17 01:50:24;;;;;;;3.95;3.38;;;;;;;;;;5048051;28;20045;-86
2023/10/17 01:52:53;;;;;;;4.20;3.28;;;;;;;;;;5028056;28;20053;-86
2023/10/17 01:55:29;;;;;;;4.05;3.65;;;;;;;;;;5044634;28;20553;-86
2023/10/17 01:57:59;;;;;;;4.43;3.38;;;;;;;;;;5048533;28;20395;-86
2023/10/17 02:03:05;;;;;;;4.53;3.28;;;;;;;;;;5065890;28;20056;-85
2023/10/17 02:05:34;;;;;;;6.13;2.97;;;;;;;;;;5050832;28;20119;-86
2023/10/17 02:08:02;;;;;;;18.52;4.57;;;;;;;;;;5049622;28;20045;-87
2023/10/17 02:10:29;;;;;;;8.45;3.47;;;;;;;;;;5037974;28;20131;-83
2023/10/17 02:12:57;;;;;;;6.70;3.25;;;;;;;;;;5037429;28;20417;-86
2023/10/17 02:15:24;;;;;;;7.13;3.72;;;;;;;;;;5027839;28;20125;-85
2023/10/17 02:17:57;;;;;;;5.05;3.65;;;;;;;;;;5021735;28;20099;-84
2023/10/17 02:20:34;;;;;;;5.53;3.50;;;;;;;;;;5024134;28;20041;-84
2023/10/17 02:23:08;;;;;;;6.82;3.65;;;;;;;;;;5024173;28;20045;-84
2023/10/17 02:25:37;;;;;;;5.80;3.42;;;;;;;;;;5034542;28;20045;-85
2023/10/17 02:28:04;;;;;;;8.40;3.53;;;;;;;;;;5044179;28;20059;-84
2023/10/17 02:30:32;;;;;;;6.10;3.40;;;;;;;;;;5055427;28;20099;-87
2023/10/17 02:33:01;;;;;;;6.35;3.70;;;;;;;;;;5063752;28;20494;-85
2023/10/17 02:35:36;;;;;;;5.50;3.28;;;;;;;;;;5041628;28;20055;-87
2023/10/17 02:38:05;;;;;;;9.00;3.13;;;;;;;;;;5041223;28;20076;-87
2023/10/17 02:40:38;;;;;;;5.15;3.60;;;;;;;;;;5038981;28;20044;-86
2023/10/17 02:43:06;;;;;;;7.30;3.88;;;;;;;;;;5041036;28;20102;-86
2023/10/17 02:45:33;;;;;;;5.30;3.40;;;;;;;;;;5039605;28;20045;-86
2023/10/17 02:48:23;;;;;;;3.78;3.40;;;;;;;;;;5040011;28;20051;-87
2023/10/17 02:51:01;;;;;;;4.13;3.78;;;;;;;;;;5039842;28;20059;-86
2023/10/17 02:53:34;;;;;;;3.70;3.40;;;;;;;;;;5032982;28;20064;-87
2023/10/17 02:56:18;;;;;;;4.80;3.35;;;;;;;;;;5038032;28;20053;-86
2023/10/17 02:58:49;;;;;;;4.57;3.67;;;;;;;;;;5022331;28;20059;-87
2023/10/17 03:01:16;;;;;;;4.78;3.47;;;;;;;;;;5039278;28;20064;-86
2023/10/17 03:03:49;;;;;;;3.65;3.35;;;;;;;;;;5040190;28;20040;-87
2023/10/17 03:06:20;;;;;;;4.07;3.30;;;;;;;;;;5042950;28;20448;-86
2023/10/17 03:08:51;;;;;;;4.93;3.10;;;;;;;;;;5022510;28;20037;-84
2023/10/17 03:11:35;;;;;;;7.13;3.92;;;;;;;;;;5022171;28;20032;-84
2023/10/17 03:14:15;;;;;;;4.60;3.35;;;;;;;;;;5019232;28;20057;-85
2023/10/17 03:16:43;;;;;;;4.78;3.72;;;;;;;;;;5008385;28;20057;-85
2023/10/17 03:19:12;;;;;;;5.38;3.72;;;;;;;;;;5007703;28;20069;-85
2023/10/17 03:21:43;;;;;;;5.45;3.88;;;;;;;;;;5026416;28;20454;-84
2023/10/17 03:24:13;;;;;;;3.83;3.50;;;;;;;;;;5008452;28;20054;-85
2023/10/17 03:26:40;;;;;;;6.10;3.47;;;;;;;;;;5008485;28;20061;-85
2023/10/17 03:29:15;;;;;;;5.82;3.55;;;;;;;;;;5025644;28;20416;-85
2023/10/17 03:31:45;;;;;;;4.22;3.50;;;;;;;;;;5008331;28;20127;-85
2023/10/17 03:34:13;;;;;;;7.07;4.28;;;;;;;;;;5022743;28;20060;-84
2023/10/17 03:36:49;;;;;;;4.05;3.53;;;;;;;;;;5047986;28;20102;-85
2023/10/17 03:39:41;;;;;;;5.80;4.20;;;;;;;;;;5039573;28;20050;-85
2023/10/17 03:42:29;;;;;;;6.05;4.18;;;;;;;;;;5035503;28;20056;-84
2023/10/17 03:44:56;;;;;;;4.05;3.47;;;;;;;;;;5049600;28;20076;-85
2023/10/17 03:47:26;;;;;;;4.30;3.85;;;;;;;;;;5051915;28;20048;-85
2023/10/17 03:49:56;;;;;;;6.93;3.58;;;;;;;;;;5069488;28;20112;-85
2023/10/17 03:52:24;;;;;;;9.43;4.25;;;;;;;;;;5052137;28;20053;-85
2023/10/17 03:54:51;;;;;;;4.10;3.30;;;;;;;;;;5052990;28;20071;-85
2023/10/17 03:57:25;;;;;;;5.13;3.67;;;;;;;;;;5052286;28;20049;-85
2023/10/17 03:59:56;;;;;;;5.50;4.10;;;;;;;;;;5052685;28;20048;-85
2023/10/17 04:02:24;;;;;;;4.18;3.70;;;;;;;;;;5051549;28;20045;-85
2023/10/17 04:04:55;;;;;;;5.07;4.18;;;;;;;;;;5052486;28;20044;-85
2023/10/17 04:07:26;;;;;;;7.45;3.75;;;;;;;;;;5052174;28;20042;-85
2023/10/17 04:12:48;;;;;;;4.43;4.03;;;;;;;;;;5052578;28;20506;-85
2023/10/17 04:15:20;;;;;;;5.05;3.92;;;;;;;;;;5051269;28;20082;-85
2023/10/17 04:17:47;;;;;;;6.75;4.03;;;;;;;;;;5051017;28;20049;-84
2023/10/17 04:20:16;;;;;;;6.05;3.95;;;;;;;;;;5052454;28;20057;-85
2023/10/17 04:22:44;;;;;;;4.10;3.50;;;;;;;;;;5031383;28;20050;-84
2023/10/17 04:25:31;;;;;;;5.05;4.05;;;;;;;;;;5031549;28;20049;-85
2023/10/17 04:28:01;;;;;;;5.32;4.10;;;;;;;;;;5045948;28;20055;-85
2023/10/17 04:30:30;;;;;;;5.43;3.80;;;;;;;;;;5050288;28;20049;-85
2023/10/17 04:33:08;;;;;;;5.07;3.63;;;;;;;;;;5049137;28;20113;-84
2023/10/17 04:35:44;;;;;;;12.95;5.97;;;;;;;;;;5031291;28;20060;-85
2023/10/17 04:38:36;;;;;;;7.38;5.90;;;;;;;;;;5030845;28;20077;-85
2023/10/17 04:41:25;;;;;;;7.88;5.57;;;;;;;;;;5036565;28;20041;-84
2023/10/17 04:43:55;;;;;;;10.02;5.28;;;;;;;;;;5029431;28;20046;-85
2023/10/17 04:46:28;;;;;;;12.48;5.50;;;;;;;;;;5036663;28;20046;-84
2023/10/17 04:49:06;;;;;;;4.95;4.20;;;;;;;;;;5031828;28;20045;-85
2023/10/17 04:51:42;;;;;;;4.85;4.00;;;;;;;;;;5033641;28;20046;-85
2023/10/17 04:56:59;;;;;;;6.50;4.00;;;;;;;;;;5049219;28;20129;-85
2023/10/17 05:05:39;;;;;;;14.57;4.00;;;;;;;;;;5069182;28;20114;-85
2023/10/17 05:07:52;;;;;;;13.15;5.22;;;;;;;;;;5049548;28;20053;-85
2023/10/17 06:17:23;;;;;;;10.18;4.30;;;;;;;;;;5063779;28;20076;-84
2023/10/17 06:19:51;;;;;;;5.93;4.57;;;;;;;;;;5029618;28;20033;-83
2023/10/17 06:24:46;;;;;;;6.28;4.20;;;;;;;;;;5064466;28;20049;-84
2023/10/17 06:35:31;;;;;;;10.15;3.80;;;;;;;;;;5046219;28;20136;-84
2023/10/17 06:37:59;;;;;;;6.28;4.05;;;;;;;;;;5028477;28;20068;-84
2023/10/17 06:40:32;;;;;;;7.93;4.35;;;;;;;;;;5036762;28;20048;-84
2023/10/17 06:43:00;;;;;;;7.05;4.45;;;;;;;;;;5042289;28;20071;-84
2023/10/17 06:45:32;;;;;;;12.88;7.47;;;;;;;;;;5047240;28;20067;-84
2023/10/17 06:48:07;;;;;;;12.00;6.33;;;;;;;;;;5029083;28;20046;-84
2023/10/17 06:53:27;;;;;;;9.40;5.25;;;;;;;;;;5066625;28;20053;-85
2023/10/17 06:56:04;;;;;;;6.97;5.00;;;;;;;;;;5028760;28;20053;-83
2023/10/17 06:58:32;;;;;;;5.55;4.20;;;;;;;;;;5047224;28;20045;-84
2023/10/17 07:01:01;;;;;;;6.03;5.32;;;;;;;;;;5066351;28;20055;-84
2023/10/17 07:03:34;;;;;;;5.53;3.53;;;;;;;;;;5048737;28;20475;-84
2023/10/17 07:06:11;;;;;;;4.88;3.80;;;;;;;;;;5049664;28;20396;-84
2023/10/17 07:08:41;;;;;;;10.20;4.93;;;;;;;;;;5046448;28;20088;-84
2023/10/17 07:11:26;;;;;;;5.88;5.00;;;;;;;;;;5029246;28;20076;-84
2023/10/17 07:14:10;;;;;;;6.18;4.68;;;;;;;;;;5028943;28;20550;-84
2023/10/17 07:16:41;;;;;;;6.28;4.72;;;;;;;;;;5064966;28;20044;-84
2023/10/17 07:19:46;;;;;;;4.35;3.97;;;;;;;;;;5048197;28;20063;-84
2023/10/17 07:24:34;;;;;;;8.07;5.97;;;;;;;;;;5066439;28;20079;-83
2023/10/17 07:27:11;;;;;;;5.78;3.83;;;;;;;;;;5048032;28;20049;-84
2023/10/17 07:29:45;;;;;;;6.00;3.67;;;;;;;;;;5047431;28;20072;-84
2023/10/17 07:32:23;;;;;;;4.10;3.70;;;;;;;;;;5065322;28;20486;-84
2023/10/17 07:34:52;;;;;;;7.00;3.75;;;;;;;;;;5047183;28;20049;-84
2023/10/17 07:37:25;;;;;;;17.45;4.45;;;;;;;;;;5046733;28;20053;-84
2023/10/17 07:42:56;;;;;;;35.47;5.78;;;;;;;;;;5051806;28;20083;-84
2023/10/17 07:45:23;;;;;;;32.90;6.80;;;;;;;;;;5036781;28;20050;-84
2023/10/17 07:47:54;;;;;;;43.97;6.00;;;;;;;;;;5028596;28;20049;-85
2023/10/17 07:50:25;;;;;;;39.35;5.90;;;;;;;;;;5028170;28;20049;-84
2023/10/17 07:52:59;;;;;;;29.70;5.05;;;;;;;;;;5047429;28;20571;-85
2023/10/17 07:58:06;;;;;;;4.65;2.78;;;;;;;;;;5059210;28;20084;-84
2023/10/17 08:00:33;;;;;;;7.20;2.58;;;;;;;;;;5028123;28;20049;-85
2023/10/17 08:03:14;;;;;;;4.65;2.42;;;;;;;;;;5040404;28;20060;-85
2023/10/17 08:08:42;;;;;;;2.30;2.10;;;;;;;;;;5063883;28;20124;-85
2023/10/17 08:13:57;;;;;;;4.95;2.20;;;;;;;;;;5063107;28;20049;-85
2023/10/17 08:16:25;;;;;;;5.15;2.47;;;;;;;;;;5046346;28;20049;-84
2023/10/17 08:18:58;;;;;;;19.95;4.97;;;;;;;;;;5063798;28;20053;-84
2023/10/17 08:21:48;;;;;;;34.60;6.65;;;;;;;;;;5045787;28;20045;-84
2023/10/17 08:24:25;;;;;;;35.03;7.07;;;;;;;;;;5043324;28;20045;-84
2023/10/17 08:29:43;;;;;;;21.35;3.78;;;;;;;;;;5061502;28;20049;-84
2023/10/17 08:34:48;;;;;;;14.88;3.17;;;;;;;;;;5066398;28;20049;-85
2023/10/17 08:37:27;;;;;;;7.75;2.33;;;;;;;;;;5065505;28;20112;-84
2023/10/17 08:39:56;;;;;;;16.15;3.47;;;;;;;;;;5048169;28;20048;-84
2023/10/17 08:42:30;;;;;;;12.52;2.83;;;;;;;;;;5048214;28;20053;-84
2023/10/17 08:44:59;;;;;;;12.15;2.65;;;;;;;;;;5049383;28;20077;-84
2023/10/17 08:47:30;;;;;;;12.02;2.85;;;;;;;;;;5048610;28;20052;-84
2023/10/17 08:50:17;;;;;;;13.40;3.55;;;;;;;;;;5048461;28;20051;-85
2023/10/17 08:52:45;;;;;;;8.68;4.22;;;;;;;;;;5048319;28;20095;-85
2023/10/17 08:55:34;;;;;;;11.32;3.08;;;;;;;;;;5048337;28;20079;-84
2023/10/17 08:58:04;;;;;;;15.13;3.78;;;;;;;;;;5049351;28;20048;-84
2023/10/17 09:03:23;;;;;;;20.50;6.03;;;;;;;;;;5066660;28;20072;-84
2023/10/17 09:06:28;;;;;;;16.92;4.35;;;;;;;;;;5066396;28;20081;-85
2023/10/17 09:08:58;;;;;;;29.00;6.15;;;;;;;;;;5066244;28;20055;-84
2023/10/17 09:11:40;;;;;;;17.75;4.85;;;;;;;;;;5048213;28;20049;-84
2023/10/17 09:14:27;;;;;;;34.78;6.93;;;;;;;;;;5046518;28;20495;-85
2023/10/17 09:17:03;;;;;;;23.95;6.28;;;;;;;;;;5065559;28;20076;-84
2023/10/17 09:19:47;;;;;;;17.35;5.28;;;;;;;;;;5049849;28;20061;-85
2023/10/17 09:22:15;;;;;;;10.27;3.97;;;;;;;;;;5049011;28;20834;-84
2023/10/17 09:24:49;;;;;;;8.32;3.50;;;;;;;;;;5049435;28;20045;-85
2023/10/17 09:27:18;;;;;;;5.28;3.00;;;;;;;;;;5067798;28;20453;-84
2023/10/17 09:29:59;;;;;;;4.20;3.50;;;;;;;;;;5081070;28;20092;-83
2023/10/17 09:32:37;;;;;;;7.85;3.30;;;;;;;;;;5043764;28;20046;-84
2023/10/17 09:35:13;;;;;;;9.90;3.40;;;;;;;;;;5063410;28;20067;-83
2023/10/17 09:37:50;;;;;;;10.95;4.03;;;;;;;;;;5046612;28;20542;-84
2023/10/17 09:40:22;;;;;;;11.55;3.50;;;;;;;;;;5047075;28;20461;-84
2023/10/17 09:42:50;;;;;;;10.75;3.40;;;;;;;;;;5042433;28;20101;-85
2023/10/17 09:45:18;;;;;;;5.38;3.25;;;;;;;;;;5043869;28;20060;-84
2023/10/17 09:48:04;;;;;;;4.90;2.80;;;;;;;;;;5040747;28;20099;-85
2023/10/17 09:50:38;;;;;;;7.13;3.10;;;;;;;;;;5026766;28;20054;-84
2023/10/17 09:53:16;;;;;;;4.65;2.88;;;;;;;;;;5029286;28;20049;-85
2023/10/17 09:55:46;;;;;;;5.82;3.25;;;;;;;;;;5040541;28;20053;-86
2023/10/17 09:58:17;;;;;;;5.55;3.25;;;;;;;;;;5071010;28;20071;-86
2023/10/17 10:00:51;;;;;;;6.18;2.97;;;;;;;;;;5050665;28;20042;-86
2023/10/17 10:03:21;;;;;;;4.60;2.92;;;;;;;;;;5027977;28;20049;-85
2023/10/17 10:05:53;;;;;;;5.35;3.35;;;;;;;;;;5020282;28;20062;-85
2023/10/17 10:08:33;;;;;;;5.63;3.10;;;;;;;;;;5055605;28;20103;-85
2023/10/17 10:11:03;;;;;;;4.40;3.40;;;;;;;;;;5060151;28;20075;-86
2023/10/17 10:13:32;;;;;;;5.72;2.95;;;;;;;;;;5039087;28;20098;-85
2023/10/17 10:16:07;;;;;;;4.80;2.80;;;;;;;;;;5020441;28;20145;-86
2023/10/17 10:18:35;;;;;;;7.95;3.33;;;;;;;;;;5029651;28;20045;-85
2023/10/17 10:21:04;;;;;;;4.13;3.08;;;;;;;;;;5041013;28;20045;-85
2023/10/17 10:23:35;;;;;;;6.75;3.35;;;;;;;;;;5023871;28;20084;-85
2023/10/17 10:26:16;;;;;;;4.32;2.80;;;;;;;;;;5056289;28;20136;-85
2023/10/17 10:28:44;;;;;;;7.15;2.88;;;;;;;;;;5027603;28;20049;-85
2023/10/17 10:31:27;;;;;;;5.88;3.25;;;;;;;;;;5026030;28;20055;-85
2023/10/17 10:33:55;;;;;;;8.25;2.95;;;;;;;;;;4998644;28;20046;-85
2023/10/17 10:36:23;;;;;;;4.78;2.65;;;;;;;;;;4998750;28;20053;-85
2023/10/17 10:38:53;;;;;;;4.78;3.28;;;;;;;;;;5024234;28;20562;-85
2023/10/17 10:41:22;;;;;;;3.35;2.85;;;;;;;;;;5021921;28;20091;-85
2023/10/17 10:43:58;;;;;;;3.13;2.80;;;;;;;;;;5030670;28;20049;-86
2023/10/17 10:46:25;;;;;;;6.70;3.25;;;;;;;;;;5020126;28;20403;-86
2023/10/17 10:48:56;;;;;;;5.40;3.05;;;;;;;;;;5022122;28;20433;-85
2023/10/17 10:51:27;;;;;;;9.93;2.90;;;;;;;;;;5028692;28;20088;-86
2023/10/17 10:53:56;;;;;;;6.13;2.88;;;;;;;;;;5023744;28;20065;-86
2023/10/17 10:56:27;;;;;;;4.28;2.90;;;;;;;;;;5033106;28;20081;-86
2023/10/17 10:58:55;;;;;;;5.35;2.67;;;;;;;;;;5039765;28;20085;-85
2023/10/17 11:01:25;;;;;;;4.63;3.08;;;;;;;;;;5036923;28;20132;-85
2023/10/17 11:03:53;;;;;;;6.53;3.00;;;;;;;;;;5024407;28;20056;-85
2023/10/17 11:06:25;;;;;;;5.10;3.20;;;;;;;;;;5016892;28;20096;-86
2023/10/17 11:08:54;;;;;;;4.45;2.88;;;;;;;;;;5024304;28;20056;-87
2023/10/17 11:11:22;;;;;;;12.73;3.58;;;;;;;;;;5025821;28;20053;-86
2023/10/17 11:13:54;;;;;;;4.43;3.50;;;;;;;;;;5036974;28;20476;-86
2023/10/17 11:16:24;;;;;;;7.60;3.25;;;;;;;;;;5037121;28;20510;-86
2023/10/17 11:18:53;;;;;;;4.97;3.08;;;;;;;;;;5038033;28;20048;-85
2023/10/17 11:21:23;;;;;;;5.60;3.40;;;;;;;;;;5038890;28;20051;-86
2023/10/17 11:23:53;;;;;;;8.05;3.33;;;;;;;;;;5042509;28;20046;-85
2023/10/17 11:26:25;;;;;;;4.60;3.42;;;;;;;;;;5035093;28;20098;-85
2023/10/17 11:28:56;;;;;;;6.10;3.55;;;;;;;;;;5037555;28;20053;-86
2023/10/17 11:31:24;;;;;;;4.65;3.20;;;;;;;;;;5038260;28;20509;-85
2023/10/17 11:33:59;;;;;;;6.28;3.35;;;;;;;;;;5039422;28;20049;-86
2023/10/17 11:36:35;;;;;;;6.97;3.20;;;;;;;;;;5029515;28;20049;-86
2023/10/17 11:39:26;;;;;;;6.03;3.65;;;;;;;;;;5038622;28;20049;-85
2023/10/17 11:41:59;;;;;;;4.03;3.47;;;;;;;;;;5009700;28;20045;-85
2023/10/17 11:44:27;;;;;;;6.75;3.28;;;;;;;;;;5030309;28;20129;-88
2023/10/17 11:46:57;;;;;;;4.22;2.95;;;;;;;;;;5028619;28;20045;-87
2023/10/17 11:49:29;;;;;;;4.25;3.25;;;;;;;;;;5030490;28;20052;-86
2023/10/17 11:51:58;;;;;;;6.70;3.55;;;;;;;;;;5038855;28;20053;-85
2023/10/17 11:54:26;;;;;;;6.88;3.05;;;;;;;;;;5028968;28;20060;-84
2023/10/17 11:57:09;;;;;;;3.47;2.80;;;;;;;;;;5029920;28;20056;-88
2023/10/17 11:59:37;;;;;;;4.57;2.90;;;;;;;;;;5018691;28;20103;-85
2023/10/17 12:02:04;;;;;;;2.92;2.47;;;;;;;;;;5024937;28;20045;-85
2023/10/17 12:04:33;;;;;;;5.07;2.33;;;;;;;;;;5035683;28;20045;-85
2023/10/17 12:07:02;;;;;;;4.13;2.35;;;;;;;;;;5040063;28;20080;-85
2023/10/17 12:09:31;;;;;;;7.55;2.65;;;;;;;;;;5030403;28;20454;-84
2023/10/17 12:12:02;;;;;;;4.53;2.97;;;;;;;;;;5029962;28;20050;-85
2023/10/17 12:14:31;;;;;;;4.03;2.30;;;;;;;;;;5039366;28;20053;-85
2023/10/17 12:17:01;;;;;;;5.38;2.50;;;;;;;;;;5034294;28;20053;-85
2023/10/17 12:19:28;;;;;;;3.53;2.72;;;;;;;;;;5033275;28;20072;-85
2023/10/17 12:22:00;;;;;;;4.53;3.20;;;;;;;;;;5035869;28;20053;-85
2023/10/17 12:24:37;;;;;;;2.97;2.70;;;;;;;;;;5033590;28;20137;-85
2023/10/17 12:27:06;;;;;;;4.53;3.22;;;;;;;;;;5037449;28;20049;-87
2023/10/17 12:29:34;;;;;;;3.35;2.70;;;;;;;;;;5027464;28;20099;-85
2023/10/17 12:32:01;;;;;;;4.60;2.70;;;;;;;;;;5029466;28;20044;-86
2023/10/17 12:34:29;;;;;;;3.35;2.40;;;;;;;;;;5054458;28;20112;-85
2023/10/17 12:36:56;;;;;;;5.75;2.20;;;;;;;;;;5055366;28;20109;-85
2023/10/17 12:39:24;;;;;;;5.13;2.80;;;;;;;;;;5066872;28;20045;-89
2023/10/17 12:41:51;;;;;;;8.75;2.85;;;;;;;;;;5026919;28;20049;-86
2023/10/17 12:44:19;;;;;;;7.40;3.60;;;;;;;;;;5044451;28;20072;-87
2023/10/17 12:46:46;;;;;;;7.10;3.85;;;;;;;;;;5047703;28;20061;-87
2023/10/17 12:49:15;;;;;;;6.40;3.72;;;;;;;;;;5031063;28;20045;-85
2023/10/17 12:51:43;;;;;;;7.10;3.33;;;;;;;;;;5039923;28;20449;-86
2023/10/17 12:54:11;;;;;;;5.45;3.97;;;;;;;;;;5059544;28;20057;-85
2023/10/17 12:56:41;;;;;;;5.97;3.88;;;;;;;;;;5031189;28;20053;-88
2023/10/17 12:59:12;;;;;;;4.78;3.70;;;;;;;;;;5029750;28;20498;-86
2023/10/17 13:01:40;;;;;;;17.50;4.82;;;;;;;;;;5027161;28;20049;-87
2023/10/17 13:04:09;;;;;;;7.65;3.47;;;;;;;;;;5025053;28;20227;-86
2023/10/17 13:06:38;;;;;;;9.63;3.45;;;;;;;;;;5029727;28;20083;-85
2023/10/17 13:09:05;;;;;;;4.82;3.22;;;;;;;;;;5038940;28;20437;-86
2023/10/17 13:11:33;;;;;;;7.13;3.42;;;;;;;;;;5028964;28;20445;-85
2023/10/17 13:14:00;;;;;;;5.00;3.15;;;;;;;;;;5033303;28;20049;-83
2023/10/17 13:16:27;;;;;;;4.82;3.25;;;;;;;;;;5038753;28;20189;-85
2023/10/17 13:18:56;;;;;;;3.28;2.92;;;;;;;;;;5037981;28;20048;-87
2023/10/17 13:21:25;;;;;;;4.40;2.85;;;;;;;;;;5028655;28;20053;-87
2023/10/17 13:23:52;;;;;;;5.38;2.97;;;;;;;;;;5030229;28;20048;-87
2023/10/17 13:26:20;;;;;;;3.22;2.47;;;;;;;;;;5029254;28;20103;-88
2023/10/17 13:28:47;;;;;;;5.30;3.17;;;;;;;;;;5014663;28;20054;-85
2023/10/17 13:31:16;;;;;;;3.45;2.50;;;;;;;;;;5022767;28;20478;-85
2023/10/17 13:33:49;;;;;;;4.68;2.70;;;;;;;;;;5056643;28;20091;-86
2023/10/17 13:36:17;;;;;;;4.68;2.80;;;;;;;;;;5029236;28;20502;-88
2023/10/17 13:38:44;;;;;;;9.63;3.75;;;;;;;;;;5023612;28;20045;-85
2023/10/17 13:41:15;;;;;;;4.93;2.30;;;;;;;;;;5035762;28;20053;-85
2023/10/17 13:43:47;;;;;;;4.05;2.00;;;;;;;;;;5031275;28;20041;-86
2023/10/17 13:46:18;;;;;;;5.38;2.45;;;;;;;;;;5030289;28;20052;-85
2023/10/17 13:48:49;;;;;;;5.38;2.60;;;;;;;;;;5034036;28;20132;-86
2023/10/17 13:51:18;;;;;;;6.53;2.30;;;;;;;;;;5033871;28;20083;-85
2023/10/17 13:53:46;;;;;;;3.25;1.80;;;;;;;;;;5010203;28;20075;-85
2023/10/17 13:56:14;;;;;;;3.80;2.05;;;;;;;;;;5026981;28;20495;-86
2023/10/17 13:58:41;;;;;;;10.52;3.00;;;;;;;;;;5031740;28;20056;-85
2023/10/17 14:01:31;;;;;;;5.75;1.98;;;;;;;;;;5032720;28;20049;-88
2023/10/17 14:04:04;;;;;;;2.25;1.38;;;;;;;;;;5025979;28;20049;-86
2023/10/17 14:06:38;;;;;;;6.38;1.30;;;;;;;;;;5040849;28;20045;-86
2023/10/17 14:09:15;;;;;;;2.97;1.20;;;;;;;;;;5039353;28;20403;-86
2023/10/17 14:11:43;;;;;;;5.28;1.45;;;;;;;;;;5034346;28;20049;-86
2023/10/17 14:14:11;;;;;;;4.38;1.55;;;;;;;;;;5035330;28;20115;-88
2023/10/17 14:16:42;;;;;;;3.22;1.45;;;;;;;;;;5063111;28;20061;-87
2023/10/17 14:19:15;;;;;;;3.75;1.40;;;;;;;;;;5076171;28;20049;-86
2023/10/17 14:22:01;;;;;;;2.60;1.70;;;;;;;;;;5040628;28;20049;-85
2023/10/17 14:27:15;;;;;;;4.70;1.95;;;;;;;;;;5046709;28;20135;-86
2023/10/17 14:29:43;;;;;;;7.68;1.30;;;;;;;;;;5035641;28;20049;-84
2023/10/17 14:32:13;;;;;;;2.90;1.20;;;;;;;;;;5034375;28;20063;-85
2023/10/17 14:34:41;;;;;;;12.88;2.20;;;;;;;;;;5029165;28;20053;-85
2023/10/17 14:37:08;;;;;;;4.22;1.70;;;;;;;;;;5027291;28;20059;-85
2023/10/17 14:39:36;;;;;;;2.72;2.15;;;;;;;;;;5051708;28;20053;-85
2023/10/17 14:42:04;;;;;;;2.42;0.95;;;;;;;;;;5049247;28;20132;-86
2023/10/17 14:44:31;;;;;;;6.88;2.15;;;;;;;;;;5039849;28;20110;-85
2023/10/17 14:46:58;;;;;;;7.70;1.60;;;;;;;;;;5029484;28;20057;-85
2023/10/17 14:49:26;;;;;;;3.58;1.48;;;;;;;;;;5036667;28;20561;-86
2023/10/17 14:51:54;;;;;;;7.13;1.98;;;;;;;;;;5045110;28;20498;-86
2023/10/17 14:54:23;;;;;;;3.58;1.60;;;;;;;;;;5037386;28;20045;-86
2023/10/17 14:56:50;;;;;;;5.43;1.60;;;;;;;;;;5028973;28;20045;-85
2023/10/17 14:59:18;;;;;;;7.45;1.48;;;;;;;;;;5047612;28;20567;-86
2023/10/17 15:01:46;;;;;;;5.43;1.23;;;;;;;;;;5019280;28;20049;-85
2023/10/17 15:04:15;;;;;;;5.45;1.10;;;;;;;;;;5026846;28;20053;-85
2023/10/17 15:06:43;;;;;;;8.50;1.60;;;;;;;;;;5031975;28;20541;-85
2023/10/17 15:09:14;;;;;;;5.22;1.58;;;;;;;;;;5048717;28;20045;-85
2023/10/17 15:11:42;;;;;;;2.83;1.50;;;;;;;;;;5028697;28;20064;-85
2023/10/17 15:14:09;;;;;;;2.67;1.20;;;;;;;;;;5028618;28;20061;-85
2023/10/17 15:16:36;;;;;;;2.78;0.93;;;;;;;;;;5036465;28;20130;-85
2023/10/17 15:19:04;;;;;;;3.80;1.40;;;;;;;;;;5052370;28;20056;-85
2023/10/17 15:21:36;;;;;;;3.03;1.52;;;;;;;;;;5021895;28;20519;-85
2023/10/17 15:24:04;;;;;;;2.20;1.50;;;;;;;;;;5029077;28;20045;-85
2023/10/17 15:26:33;;;;;;;6.18;1.52;;;;;;;;;;5056266;28;20098;-86
2023/10/17 15:29:00;;;;;;;7.03;1.20;;;;;;;;;;5031833;28;20045;-85
2023/10/17 15:31:28;;;;;;;3.63;1.90;;;;;;;;;;5032318;28;20053;-85
2023/10/17 15:33:56;;;;;;;11.27;1.70;;;;;;;;;;5039052;28;20098;-86
2023/10/17 15:36:27;;;;;;;3.45;1.52;;;;;;;;;;5049818;28;20040;-87
2023/10/17 15:38:56;;;;;;;13.45;2.13;;;;;;;;;;5060063;28;20415;-84
2023/10/17 15:41:23;;;;;;;9.25;1.63;;;;;;;;;;5031796;28;20050;-85
2023/10/17 15:43:51;;;;;;;9.98;1.77;;;;;;;;;;5043451;28;20076;-85
2023/10/17 15:46:18;;;;;;;10.43;2.13;;;;;;;;;;5035338;28;20076;-85
2023/10/17 15:48:46;;;;;;;14.60;4.65;;;;;;;;;;5023833;28;20442;-85
2023/10/17 15:51:20;;;;;;;21.23;4.63;;;;;;;;;;5031980;28;20053;-84
2023/10/17 15:53:47;;;;;;;8.30;3.53;;;;;;;;;;5035121;28;20406;-85
2023/10/17 15:56:15;;;;;;;18.58;4.10;;;;;;;;;;5035666;28;20080;-85
2023/10/17 15:58:42;;;;;;;12.18;2.85;;;;;;;;;;5050274;28;20503;-85
2023/10/17 16:01:12;;;;;;;12.52;2.88;;;;;;;;;;5031872;28;20046;-84
2023/10/17 16:03:42;;;;;;;12.73;2.85;;;;;;;;;;5034891;28;20088;-85
2023/10/17 16:06:10;;;;;;;9.35;2.70;;;;;;;;;;5042786;28;20131;-85
2023/10/17 16:08:38;;;;;;;12.40;2.83;;;;;;;;;;5033184;28;20422;-85
2023/10/17 16:11:06;;;;;;;20.42;4.28;;;;;;;;;;5031818;28;20128;-84
2023/10/17 16:13:33;;;;;;;30.55;5.10;;;;;;;;;;5041254;28;20481;-84
2023/10/17 16:16:01;;;;;;;16.58;3.55;;;;;;;;;;5029181;28;20187;-84
2023/10/17 16:18:29;;;;;;;32.42;4.90;;;;;;;;;;5031918;28;20146;-84
2023/10/17 16:20:57;;;;;;;35.70;5.90;;;;;;;;;;5024332;28;20052;-84
2023/10/17 16:23:24;;;;;;;23.83;4.10;;;;;;;;;;5050130;28;20073;-86
2023/10/17 16:25:52;;;;;;;22.77;5.22;;;;;;;;;;5034166;28;20103;-85
2023/10/17 16:28:20;;;;;;;37.58;5.28;;;;;;;;;;5034947;28;20131;-84
2023/10/17 16:30:51;;;;;;;33.17;5.50;;;;;;;;;;5023938;28;20052;-85
2023/10/17 16:33:18;;;;;;;25.77;3.92;;;;;;;;;;5048883;28;20084;-84
2023/10/17 16:35:45;;;;;;;12.73;3.75;;;;;;;;;;5022599;28;20050;-84
2023/10/17 16:38:14;;;;;;;13.88;3.17;;;;;;;;;;5038175;28;20430;-84
2023/10/17 16:40:43;;;;;;;15.88;4.55;;;;;;;;;;5031639;28;20049;-85
2023/10/17 16:43:14;;;;;;;14.23;3.58;;;;;;;;;;5031062;28;20099;-84
2023/10/17 16:45:47;;;;;;;27.23;6.28;;;;;;;;;;5048342;28;20510;-84
2023/10/17 16:48:16;;;;;;;31.65;4.97;;;;;;;;;;5030575;28;20045;-84
2023/10/17 16:50:47;;;;;;;15.90;5.40;;;;;;;;;;5044588;28;20052;-84
2023/10/17 16:53:15;;;;;;;25.50;10.32;;;;;;;;;;5025934;28;20552;-84
2023/10/17 16:55:42;;;;;;;116.07;18.92;;;;;;;;;;5033630;28;20091;-84
2023/10/17 16:58:10;;;;;;;46.00;18.95;;;;;;;;;;5027691;28;20050;-84
2023/10/17 17:00:37;;;;;;;53.05;24.00;;;;;;;;;;5050739;28;20556;-84
2023/10/17 17:03:05;;;;;;;41.25;20.25;;;;;;;;;;5033914;28;20400;-84
2023/10/17 17:05:32;;;;;;;39.42;19.65;;;;;;;;;;5032336;28;20045;-84
2023/10/17 17:08:00;;;;;;;40.97;18.48;;;;;;;;;;5035923;28;20045;-84
2023/10/17 17:10:28;;;;;;;41.40;20.48;;;;;;;;;;5050473;28;20495;-85
2023/10/17 17:12:58;;;;;;;56.75;20.80;;;;;;;;;;5029971;28;20095;-84